Time;durP1;ratioP1;P1;durP2;ratioP2;P2;SDS_P1;SDS_P2;PMS_P1;PMS_P2;Temp;Humidity;BMP_temperature;BMP_pressure;BME280_temperature;BME280_humidity;BME280_pressure;Samples;Min_cycle;Max_cycle;Signal;HPM_P1;HPM_P2
2022/07/03 00:01:55;;;;;;;;;;;563.50;2432.00;;;;;;5074543;28;20316;-64
2022/07/03 00:04:21;;;;;;;;;;;563.60;2432.00;;;;;;5074212;28;20050;-60
2022/07/03 00:06:46;;;;;;;;;;;563.60;2432.00;;;;;;5074387;28;20282;-61
2022/07/03 00:09:12;;;;;;;;;;;563.60;2432.00;;;;;;5073764;28;19912;-60
2022/07/03 00:11:38;;;;;;;;;;;563.70;2432.00;;;;;;5074165;28;19958;-59
2022/07/03 00:14:03;;;;;;;;;;;563.70;2432.00;;;;;;5074259;28;19908;-59
2022/07/03 00:16:29;;;;;;;;;;;563.60;2432.00;;;;;;5074135;28;20337;-64
2022/07/03 00:18:54;;;;;;;;;;;563.60;2432.00;;;;;;5073754;28;19911;-61
2022/07/03 00:21:23;;;;;;;;;;;563.60;2432.00;;;;;;5073141;28;19995;-60
2022/07/03 00:23:54;;;;;;;;;;;563.50;2432.00;;;;;;5072891;28;19913;-59
2022/07/03 00:26:20;;;;;;;;;;;563.30;2432.00;;;;;;5072960;28;19904;-62
2022/07/03 00:28:46;;;;;;;;;;;538.50;2406.40;;;;;;5073078;28;20278;-59
2022/07/03 00:31:12;;;;;;;;;;;538.40;2406.40;;;;;;5073190;28;19991;-58
2022/07/03 00:33:37;;;;;;;;;;;538.50;2406.40;;;;;;5073286;28;19999;-60
2022/07/03 00:36:03;;;;;;;;;;;563.30;2432.00;;;;;;5072929;28;19947;-60
2022/07/03 00:38:29;;;;;;;;;;;563.30;2432.00;;;;;;5073062;28;19904;-62
2022/07/03 00:40:54;;;;;;;;;;;563.40;2432.00;;;;;;5073157;28;19905;-64
2022/07/03 00:43:20;;;;;;;;;;;563.50;2432.00;;;;;;5072919;28;20003;-60
2022/07/03 00:45:48;;;;;;;;;;;563.50;2432.00;;;;;;5073084;28;20231;-58
2022/07/03 00:48:17;;;;;;;;;;;563.50;2432.00;;;;;;5072789;28;19915;-61
2022/07/03 00:50:47;;;;;;;;;;;563.50;2432.00;;;;;;5072748;28;19904;-61
2022/07/03 00:53:13;;;;;;;;;;;563.50;2432.00;;;;;;5070283;28;19946;-61
2022/07/03 00:55:41;;;;;;;;;;;563.30;2432.00;;;;;;5072988;28;19904;-61
2022/07/03 00:58:07;;;;;;;;;;;563.30;2432.00;;;;;;5072570;28;19912;-59
2022/07/03 01:00:34;;;;;;;;;;;563.40;2432.00;;;;;;5072152;28;19974;-60
2022/07/03 01:03:04;;;;;;;;;;;563.30;2432.00;;;;;;5073171;28;19908;-62
2022/07/03 01:05:37;;;;;;;;;;;563.30;2432.00;;;;;;5073241;28;19912;-60
2022/07/03 01:08:05;;;;;;;;;;;563.30;2432.00;;;;;;5073057;28;19904;-64
2022/07/03 01:10:50;;;;;;;;;;;563.40;2432.00;;;;;;5072950;28;19904;-60
2022/07/03 01:13:34;;;;;;;;;;;563.40;2432.00;;;;;;5072985;28;19962;-63
2022/07/03 01:16:08;;;;;;;;;;;563.40;2432.00;;;;;;5072914;28;20294;-59
2022/07/03 01:18:36;;;;;;;;;;;563.40;2432.00;;;;;;5072803;28;19916;-59
2022/07/03 01:21:18;;;;;;;;;;;563.30;2432.00;;;;;;5072856;28;19905;-61
2022/07/03 01:24:04;;;;;;;;;;;563.30;2432.00;;;;;;5072477;28;19916;-62
2022/07/03 01:26:33;;;;;;;;;;;563.30;2432.00;;;;;;5072750;28;19912;-62
2022/07/03 01:29:02;;;;;;;;;;;563.30;2432.00;;;;;;5072471;28;19916;-59
2022/07/03 01:31:28;;;;;;;;;;;563.20;2432.00;;;;;;5055054;28;20255;-62
2022/07/03 01:33:53;;;;;;;;;;;563.20;2432.00;;;;;;5072502;28;19909;-60
2022/07/03 01:36:21;;;;;;;;;;;538.50;2406.40;;;;;;5072497;28;20023;-60
2022/07/03 01:38:48;;;;;;;;;;;538.50;2406.40;;;;;;5072453;28;19911;-62
2022/07/03 01:41:14;;;;;;;;;;;538.50;2406.40;;;;;;5072093;28;19962;-63
2022/07/03 01:43:44;;;;;;;;;;;538.50;2406.40;;;;;;5072420;28;20336;-60
2022/07/03 01:46:11;;;;;;;;;;;538.50;2406.40;;;;;;5072517;28;19904;-61
2022/07/03 01:48:41;;;;;;;;;;;538.50;2406.40;;;;;;5072289;28;19908;-59
2022/07/03 01:51:07;;;;;;;;;;;538.40;2406.40;;;;;;5072258;28;19957;-59
2022/07/03 01:53:33;;;;;;;;;;;538.40;2406.40;;;;;;5072034;28;20405;-62
2022/07/03 01:56:00;;;;;;;;;;;538.40;2406.40;;;;;;5072075;28;19943;-63
2022/07/03 01:58:25;;;;;;;;;;;538.50;2406.40;;;;;;5072049;28;19909;-62
2022/07/03 02:01:01;;;;;;;;;;;538.50;2406.40;;;;;;5072223;28;19915;-61
2022/07/03 02:03:28;;;;;;;;;;;538.50;2406.40;;;;;;5072116;28;19914;-62
2022/07/03 02:05:59;;;;;;;;;;;538.40;2406.40;;;;;;5071870;28;19908;-59
2022/07/03 02:08:43;;;;;;;;;;;538.30;2406.40;;;;;;5071637;28;19950;-59
2022/07/03 02:11:09;;;;;;;;;;;538.30;2406.40;;;;;;5071973;28;19905;-59
2022/07/03 02:13:38;;;;;;;;;;;538.30;2406.40;;;;;;5070775;28;19918;-60
2022/07/03 02:16:03;;;;;;;;;;;538.10;2406.40;;;;;;5071668;28;19912;-61
2022/07/03 02:18:36;;;;;;;;;;;538.10;2406.40;;;;;;5071657;28;20263;-61
2022/07/03 02:21:18;;;;;;;;;;;538.10;2406.40;;;;;;5071433;28;19919;-59
2022/07/03 02:24:01;;;;;;;;;;;538.10;2406.40;;;;;;5071294;28;19923;-61
2022/07/03 02:26:30;;;;;;;;;;;538.10;2406.40;;;;;;5071464;28;20282;-62
2022/07/03 02:28:56;;;;;;;;;;;538.10;2406.40;;;;;;5071369;28;19912;-62
2022/07/03 02:31:24;;;;;;;;;;;538.00;2406.40;;;;;;5071186;28;19908;-60
2022/07/03 02:33:51;;;;;;;;;;;538.00;2406.40;;;;;;5071665;28;19911;-61
2022/07/03 02:36:19;;;;;;;;;;;538.00;2406.40;;;;;;5071431;28;19904;-61
2022/07/03 02:38:48;;;;;;;;;;;538.00;2406.40;;;;;;5071172;28;20282;-61
2022/07/03 02:41:15;;;;;;;;;;;537.90;2406.40;;;;;;5071118;28;19909;-59
2022/07/03 02:43:49;;;;;;;;;;;538.00;2406.40;;;;;;5071105;28;19912;-60
2022/07/03 02:49:20;;;;;;;;;;;538.00;2406.40;;;;;;5071521;28;19911;-60
2022/07/03 02:51:58;;;;;;;;;;;538.00;2406.40;;;;;;5070097;28;19930;-61
2022/07/03 02:54:24;;;;;;;;;;;538.10;2406.40;;;;;;5070979;28;20368;-61
2022/07/03 02:56:59;;;;;;;;;;;538.10;2406.40;;;;;;5071069;28;19912;-61
2022/07/03 02:59:36;;;;;;;;;;;538.00;2406.40;;;;;;5070639;28;19921;-60
2022/07/03 03:02:02;;;;;;;;;;;538.00;2406.40;;;;;;5070780;28;19911;-60
2022/07/03 03:04:32;;;;;;;;;;;538.00;2406.40;;;;;;5070918;28;19912;-61
2022/07/03 03:07:09;;;;;;;;;;;538.00;2406.40;;;;;;5070873;28;19912;-61
2022/07/03 03:09:39;;;;;;;;;;;538.00;2406.40;;;;;;5070709;28;19904;-61
2022/07/03 03:12:05;;;;;;;;;;;538.00;2406.40;;;;;;5070754;28;19905;-59
2022/07/03 03:14:37;;;;;;;;;;;538.00;2406.40;;;;;;5070697;28;19904;-62
2022/07/03 03:17:05;;;;;;;;;;;538.10;2406.40;;;;;;5070640;28;19911;-59
2022/07/03 03:19:32;;;;;;;;;;;538.10;2406.40;;;;;;5070474;28;20381;-60
2022/07/03 03:22:03;;;;;;;;;;;538.10;2406.40;;;;;;5070492;28;20251;-63
2022/07/03 03:24:30;;;;;;;;;;;538.20;2406.40;;;;;;5070175;28;19912;-61
2022/07/03 03:26:57;;;;;;;;;;;538.40;2406.40;;;;;;5070279;28;19904;-62
2022/07/03 03:29:22;;;;;;;;;;;538.40;2406.40;;;;;;5070441;28;19915;-62
2022/07/03 03:31:48;;;;;;;;;;;563.20;2432.00;;;;;;5070515;28;19904;-59
2022/07/03 03:34:15;;;;;;;;;;;563.20;2432.00;;;;;;5070344;28;19958;-61
2022/07/03 03:36:41;;;;;;;;;;;563.20;2432.00;;;;;;5070626;28;20947;-62
2022/07/03 03:39:06;;;;;;;;;;;563.20;2432.00;;;;;;5070542;28;19977;-61
2022/07/03 03:41:32;;;;;;;;;;;563.20;2432.00;;;;;;5070519;28;20346;-60
2022/07/03 03:43:58;;;;;;;;;;;563.20;2432.00;;;;;;5070324;28;19913;-62
2022/07/03 03:46:24;;;;;;;;;;;563.30;2432.00;;;;;;5070264;28;19915;-61
2022/07/03 03:48:49;;;;;;;;;;;563.40;2432.00;;;;;;5070324;28;19934;-59
2022/07/03 03:51:15;;;;;;;;;;;563.60;2432.00;;;;;;5070044;28;19904;-62
2022/07/03 03:53:40;;;;;;;;;;;563.60;2432.00;;;;;;5070342;28;20297;-63
2022/07/03 03:56:07;;;;;;;;;;;563.60;2432.00;;;;;;5070244;28;20309;-63
2022/07/03 03:58:34;;;;;;;;;;;563.70;2432.00;;;;;;5070111;28;19908;-62
2022/07/03 04:01:00;;;;;;;;;;;563.70;2432.00;;;;;;5070354;28;19909;-59
2022/07/03 04:03:26;;;;;;;;;;;563.90;2432.00;;;;;;5070093;28;19994;-63
2022/07/03 04:05:52;;;;;;;;;;;563.90;2432.00;;;;;;5070101;28;19904;-61
2022/07/03 04:08:18;;;;;;;;;;;564.10;2432.00;;;;;;5070182;28;20343;-61
2022/07/03 04:10:43;;;;;;;;;;;588.80;2432.00;;;;;;5070260;28;20003;-62
2022/07/03 04:13:09;;;;;;;;;;;588.90;2432.00;;;;;;5070215;28;19951;-61
2022/07/03 04:15:34;;;;;;;;;;;589.00;2432.00;;;;;;5070175;28;19904;-61
2022/07/03 04:18:00;;;;;;;;;;;589.00;2432.00;;;;;;5070051;28;20303;-61
2022/07/03 04:20:25;;;;;;;;;;;589.20;2432.00;;;;;;5070033;28;20351;-60
2022/07/03 04:22:51;;;;;;;;;;;589.30;2432.00;;;;;;5069622;28;19931;-63
2022/07/03 04:25:17;;;;;;;;;;;589.30;2432.00;;;;;;5070166;28;19904;-62
2022/07/03 04:27:43;;;;;;;;;;;589.50;2432.00;;;;;;5069717;28;20377;-59
2022/07/03 04:30:10;;;;;;;;;;;614.40;2432.00;;;;;;5070021;28;19908;-60
2022/07/03 04:32:36;;;;;;;;;;;614.50;2432.00;;;;;;5069982;28;20282;-61
2022/07/03 04:35:02;;;;;;;;;;;614.70;2432.00;;;;;;5070097;28;19990;-62
2022/07/03 04:37:27;;;;;;;;;;;640.60;2432.00;;;;;;5073427;28;20389;-62
2022/07/03 04:39:53;;;;;;;;;;;691.60;2432.00;;;;;;5073448;28;19904;-62
2022/07/03 04:42:18;;;;;;;;;;;717.10;2252.80;;;;;;5073631;28;19904;-61
2022/07/03 04:44:44;;;;;;;;;;;743.10;2099.20;;;;;;5073248;28;20354;-60
2022/07/03 04:47:10;;;;;;;;;;;794.40;1868.80;;;;;;5073500;28;19999;-61
2022/07/03 04:49:35;;;;;;;;;;;819.30;1792.00;;;;;;5073482;28;19905;-62
2022/07/03 04:52:01;;;;;;;;;;;794.00;1817.60;;;;;;5073215;28;19938;-61
2022/07/03 04:54:27;;;;;;;;;;;819.80;1740.80;;;;;;5073274;28;19904;-61
2022/07/03 04:56:52;;;;;;;;;;;870.70;1612.80;;;;;;5073089;28;20441;-60
2022/07/03 04:59:18;;;;;;;;;;;896.90;1510.40;;;;;;5073007;28;19923;-60
2022/07/03 05:01:44;;;;;;;;;;;896.90;1484.80;;;;;;5073193;28;20363;-62
2022/07/03 05:04:09;;;;;;;;;;;896.70;1459.20;;;;;;5073178;28;19919;-63
2022/07/03 05:06:35;;;;;;;;;;;820.10;1638.40;;;;;;5073013;28;19939;-62
2022/07/03 05:09:00;;;;;;;;;;;793.90;1792.00;;;;;;5072752;28;19912;-61
2022/07/03 05:11:26;;;;;;;;;;;820.10;1689.60;;;;;;5073145;28;19930;-62
2022/07/03 05:13:51;;;;;;;;;;;844.90;1689.60;;;;;;5072894;28;19905;-61
2022/07/03 05:16:17;;;;;;;;;;;896.50;1536.00;;;;;;5072999;28;19910;-61
2022/07/03 05:18:42;;;;;;;;;;;948.10;1382.40;;;;;;5072704;28;19905;-63
2022/07/03 05:21:08;;;;;;;;;;;973.30;1356.80;;;;;;5072839;28;20335;-63
2022/07/03 05:23:34;;;;;;;;;;;998.60;1356.80;;;;;;5072438;28;19951;-62
2022/07/03 05:25:59;;;;;;;;;;;1024.50;1280.00;;;;;;5072931;28;19908;-62
2022/07/03 05:28:25;;;;;;;;;;;1075.50;1203.20;;;;;;5072393;28;19908;-61
2022/07/03 05:30:50;;;;;;;;;;;1101.10;1152.00;;;;;;5072367;28;20349;-60
2022/07/03 05:33:16;;;;;;;;;;;1075.90;1177.60;;;;;;5072574;28;19949;-61
2022/07/03 05:35:41;;;;;;;;;;;998.70;1305.60;;;;;;5072417;28;20295;-62
2022/07/03 05:38:07;;;;;;;;;;;922.30;1433.60;;;;;;5072449;28;20309;-61
2022/07/03 05:40:33;;;;;;;;;;;947.70;1382.40;;;;;;5072370;28;19912;-64
2022/07/03 05:42:58;;;;;;;;;;;1024.20;1254.40;;;;;;5072494;28;19911;-59
2022/07/03 05:45:24;;;;;;;;;;;1075.70;1152.00;;;;;;5072235;28;20014;-61
2022/07/03 05:47:49;;;;;;;;;;;1101.50;1152.00;;;;;;5072291;28;19904;-62
2022/07/03 05:50:15;;;;;;;;;;;1100.80;1203.20;;;;;;5072011;28;20039;-59
2022/07/03 05:52:40;;;;;;;;;;;1024.30;1254.40;;;;;;5072045;28;20350;-61
2022/07/03 05:55:06;;;;;;;;;;;973.70;1305.60;;;;;;5072360;28;20270;-60
2022/07/03 05:57:32;;;;;;;;;;;1050.50;1177.60;;;;;;5072089;28;19912;-61
2022/07/03 05:59:57;;;;;;;;;;;1049.70;1228.80;;;;;;5072002;28;19948;-61
2022/07/03 06:02:23;;;;;;;;;;;1050.40;1177.60;;;;;;5072039;28;20380;-61
2022/07/03 06:04:49;;;;;;;;;;;1101.70;1126.40;;;;;;5072186;28;19913;-60
2022/07/03 06:07:16;;;;;;;;;;;1152.70;1049.60;;;;;;5071734;28;19962;-61
2022/07/03 06:09:44;;;;;;;;;;;1178.10;1024.00;;;;;;5071516;28;20397;-61
2022/07/03 06:12:09;;;;;;;;;;;1152.40;1075.20;;;;;;5071889;28;20004;-62
2022/07/03 06:14:35;;;;;;;;;;;1075.70;1152.00;;;;;;5071681;28;19952;-61
2022/07/03 06:17:00;;;;;;;;;;;1100.80;1177.60;;;;;;5071784;28;19904;-61
2022/07/03 06:19:26;;;;;;;;;;;1127.10;1075.20;;;;;;5071861;28;19912;-62
2022/07/03 06:21:51;;;;;;;;;;;1178.00;1024.00;;;;;;5071622;28;20338;-62
2022/07/03 06:24:17;;;;;;;;;;;1203.30;998.40;;;;;;5071368;28;20007;-60
2022/07/03 06:26:43;;;;;;;;;;;1203.60;972.80;;;;;;5071336;28;19957;-63
2022/07/03 06:29:08;;;;;;;;;;;1228.80;998.40;;;;;;5071361;28;19999;-62
2022/07/03 06:31:34;;;;;;;;;;;1228.90;972.80;;;;;;5071257;28;19957;-62
2022/07/03 06:33:59;;;;;;;;;;;1229.50;947.20;;;;;;5071279;28;19904;-61
2022/07/03 06:36:25;;;;;;;;;;;1254.90;947.20;;;;;;5071041;28;19904;-61
2022/07/03 06:38:50;;;;;;;;;;;1255.10;947.20;;;;;;5071845;28;19904;-62
2022/07/03 06:41:16;;;;;;;;;;;1280.20;896.00;;;;;;5070358;28;20011;-65
2022/07/03 06:43:42;;;;;;;;;;;1255.30;921.60;;;;;;5070546;28;19916;-61
2022/07/03 06:46:07;;;;;;;;;;;1280.70;896.00;;;;;;5071153;28;19954;-63
2022/07/03 06:48:33;;;;;;;;;;;1280.90;896.00;;;;;;5071228;28;20374;-61
2022/07/03 06:50:58;;;;;;;;;;;1305.70;870.40;;;;;;5070804;28;20285;-62
2022/07/03 06:53:24;;;;;;;;;;;1306.00;870.40;;;;;;5070763;28;20021;-60
2022/07/03 06:55:49;;;;;;;;;;;1306.00;870.40;;;;;;5070811;28;19912;-63
2022/07/03 06:58:15;;;;;;;;;;;1280.90;896.00;;;;;;5070124;28;19912;-63
2022/07/03 07:00:40;;;;;;;;;;;1306.20;870.40;;;;;;5068044;28;19986;-64
2022/07/03 07:03:06;;;;;;;;;;;1331.20;844.80;;;;;;5069185;28;19915;-63
2022/07/03 07:05:31;;;;;;;;;;;1331.20;844.80;;;;;;5069125;28;19909;-63
2022/07/03 07:07:57;;;;;;;;;;;1331.70;844.80;;;;;;5069334;28;19910;-62
2022/07/03 07:10:22;;;;;;;;;;;1357.10;819.20;;;;;;5069116;28;20354;-65
2022/07/03 07:12:49;;;;;;;;;;;1357.20;819.20;;;;;;5069065;28;19985;-65
2022/07/03 07:15:14;;;;;;;;;;;1357.40;819.20;;;;;;5068523;28;19963;-62
2022/07/03 07:17:40;;;;;;;;;;;1357.50;819.20;;;;;;5069238;28;19909;-61
2022/07/03 07:20:06;;;;;;;;;;;1356.90;819.20;;;;;;5068996;28;19939;-64
2022/07/03 07:22:31;;;;;;;;;;;1357.20;819.20;;;;;;5068966;28;19919;-64
2022/07/03 07:24:57;;;;;;;;;;;1356.90;844.80;;;;;;5069095;28;19959;-63
2022/07/03 07:27:22;;;;;;;;;;;1357.20;819.20;;;;;;5068258;28;19904;-62
2022/07/03 07:29:48;;;;;;;;;;;1357.50;819.20;;;;;;5068981;28;20397;-61
2022/07/03 07:32:13;;;;;;;;;;;1356.80;844.80;;;;;;5068743;28;19908;-63
2022/07/03 07:34:39;;;;;;;;;;;1357.10;819.20;;;;;;5069093;28;19908;-64
2022/07/03 07:37:06;;;;;;;;;;;1357.70;793.60;;;;;;5068773;28;19949;-63
2022/07/03 07:39:31;;;;;;;;;;;1382.60;819.20;;;;;;5068678;28;19905;-63
2022/07/03 07:41:57;;;;;;;;;;;1382.40;793.60;;;;;;5068403;28;20434;-64
2022/07/03 07:44:22;;;;;;;;;;;1382.90;793.60;;;;;;5068540;28;19919;-62
2022/07/03 07:46:49;;;;;;;;;;;1357.40;793.60;;;;;;5069013;28;19908;-63
2022/07/03 07:49:14;;;;;;;;;;;1357.20;793.60;;;;;;5068432;28;20011;-63
2022/07/03 07:51:40;;;;;;;;;;;1357.10;793.60;;;;;;5068995;28;20026;-65
2022/07/03 07:54:06;;;;;;;;;;;1356.80;819.20;;;;;;5068153;28;20266;-66
2022/07/03 07:56:31;;;;;;;;;;;1306.50;793.60;;;;;;5068583;28;19904;-64
2022/07/03 07:58:57;;;;;;;;;;;1331.20;819.20;;;;;;5068490;28;20349;-64
2022/07/03 08:07:11;;;;;;;;;;;1280.90;844.80;;;;;;5006169;28;19931;-64
2022/07/03 08:09:36;;;;;;;;;;;1280.40;844.80;;;;;;5006368;28;19914;-62
2022/07/03 08:12:02;;;;;;;;;;;1280.20;844.80;;;;;;5009777;28;19909;-62
2022/07/03 08:14:27;;;;;;;;;;;1280.70;819.20;;;;;;5010359;28;20036;-62
2022/07/03 08:16:53;;;;;;;;;;;1254.90;870.40;;;;;;5010130;28;20370;-61
2022/07/03 08:19:19;;;;;;;;;;;1152.90;947.20;;;;;;5010003;28;19906;-63
2022/07/03 08:21:44;;;;;;;;;;;1075.70;1024.00;;;;;;5010193;28;19935;-64
2022/07/03 08:24:10;;;;;;;;;;;1050.30;1049.60;;;;;;5010090;28;20004;-62
2022/07/03 08:26:36;;;;;;;;;;;998.50;1177.60;;;;;;5010169;28;19916;-64
2022/07/03 08:29:02;;;;;;;;;;;998.40;1177.60;;;;;;5009884;28;20296;-61
2022/07/03 08:31:28;;;;;;;;;;;948.10;1177.60;;;;;;5010195;28;19916;-59
2022/07/03 08:33:53;;;;;;;;;;;947.70;1228.80;;;;;;5009489;28;19959;-59
2022/07/03 08:36:19;;;;;;;;;;;948.10;1203.20;;;;;;5069536;28;20248;-59
2022/07/03 08:38:45;;;;;;;;;;;922.30;1280.00;;;;;;5071156;28;20512;-60
2022/07/03 08:41:12;;;;;;;;;;;922.00;1305.60;;;;;;5072036;28;19991;-65
2022/07/03 08:43:38;;;;;;;;;;;922.00;1305.60;;;;;;5071709;28;19912;-63
2022/07/03 08:46:05;;;;;;;;;;;896.40;1331.20;;;;;;5071047;28;19908;-61
2022/07/03 08:48:33;;;;;;;;;;;921.60;1331.20;;;;;;5072102;28;19908;-63
2022/07/03 08:51:00;;;;;;;;;;;922.10;1331.20;;;;;;5071905;28;20305;-61
2022/07/03 08:53:25;;;;;;;;;;;896.60;1356.80;;;;;;5071518;28;19905;-64
2022/07/03 08:55:51;;;;;;;;;;;896.60;1356.80;;;;;;5071712;28;19915;-62
2022/07/03 08:58:19;;;;;;;;;;;896.30;1382.40;;;;;;5071287;28;19908;-60
2022/07/03 09:00:45;;;;;;;;;;;896.50;1356.80;;;;;;5071518;28;20441;-60
2022/07/03 09:03:11;;;;;;;;;;;896.40;1356.80;;;;;;5071622;28;19904;-61
2022/07/03 09:05:37;;;;;;;;;;;896.10;1408.00;;;;;;5071626;28;19915;-63
2022/07/03 09:08:02;;;;;;;;;;;871.30;1408.00;;;;;;5071206;28;19908;-62
2022/07/03 09:10:28;;;;;;;;;;;896.00;1408.00;;;;;;5071409;28;19905;-63
2022/07/03 09:12:54;;;;;;;;;;;871.30;1408.00;;;;;;5071062;28;20397;-63
2022/07/03 09:15:21;;;;;;;;;;;896.00;1408.00;;;;;;5071635;28;19904;-61
2022/07/03 09:18:01;;;;;;;;;;;896.00;1408.00;;;;;;5071567;28;19987;-62
2022/07/03 09:20:40;;;;;;;;;;;896.20;1408.00;;;;;;5071450;28;19916;-61
2022/07/03 09:23:09;;;;;;;;;;;871.10;1408.00;;;;;;5070512;28;20262;-59
2022/07/03 09:25:34;;;;;;;;;;;871.30;1382.40;;;;;;5070834;28;20015;-62
2022/07/03 09:28:00;;;;;;;;;;;871.10;1433.60;;;;;;5071160;28;20003;-61
2022/07/03 09:30:26;;;;;;;;;;;870.70;1484.80;;;;;;5071211;28;20415;-61
2022/07/03 09:32:52;;;;;;;;;;;870.70;1459.20;;;;;;5070739;28;19911;-61
2022/07/03 09:35:20;;;;;;;;;;;870.40;1459.20;;;;;;5071024;28;19912;-62
2022/07/03 09:37:50;;;;;;;;;;;870.50;1459.20;;;;;;5070612;28;20457;-60
2022/07/03 09:40:16;;;;;;;;;;;845.40;1510.40;;;;;;5070979;28;20273;-62
2022/07/03 09:43:01;;;;;;;;;;;845.40;1510.40;;;;;;5070543;28;19914;-59
2022/07/03 09:45:27;;;;;;;;;;;845.70;1510.40;;;;;;5074360;28;19912;-63
2022/07/03 09:47:53;;;;;;;;;;;870.50;1510.40;;;;;;5075006;28;19950;-63
2022/07/03 09:50:19;;;;;;;;;;;870.50;1459.20;;;;;;5075218;28;19905;-60
2022/07/03 09:52:45;;;;;;;;;;;870.50;1484.80;;;;;;5074812;28;20408;-62
2022/07/03 09:55:11;;;;;;;;;;;870.80;1484.80;;;;;;5074777;28;19950;-61
2022/07/03 09:57:37;;;;;;;;;;;871.00;1459.20;;;;;;5074694;28;19908;-61
2022/07/03 10:00:12;;;;;;;;;;;870.40;1484.80;;;;;;5074596;28;19967;-62
2022/07/03 10:02:53;;;;;;;;;;;870.50;1510.40;;;;;;5074920;28;20270;-62
2022/07/03 10:05:19;;;;;;;;;;;870.90;1459.20;;;;;;5074513;28;20259;-63
2022/07/03 10:07:56;;;;;;;;;;;870.70;1484.80;;;;;;5072477;28;19905;-61
2022/07/03 10:10:22;;;;;;;;;;;870.70;1484.80;;;;;;5069871;28;19958;-60
2022/07/03 10:12:49;;;;;;;;;;;871.00;1459.20;;;;;;5069851;28;19905;-62
2022/07/03 10:15:15;;;;;;;;;;;870.80;1484.80;;;;;;5069626;28;19912;-61
2022/07/03 10:17:41;;;;;;;;;;;870.90;1484.80;;;;;;5069177;28;19995;-61
2022/07/03 10:20:08;;;;;;;;;;;870.60;1484.80;;;;;;5069671;28;19904;-60
2022/07/03 10:22:36;;;;;;;;;;;871.00;1510.40;;;;;;5069828;28;19904;-60
2022/07/03 10:25:01;;;;;;;;;;;871.10;1484.80;;;;;;5069321;28;19973;-62
2022/07/03 10:27:29;;;;;;;;;;;871.20;1510.40;;;;;;5069639;28;20443;-61
2022/07/03 10:29:55;;;;;;;;;;;871.10;1459.20;;;;;;5069228;28;19913;-60
2022/07/03 10:32:20;;;;;;;;;;;870.50;1510.40;;;;;;5069077;28;19908;-61
2022/07/03 10:34:46;;;;;;;;;;;870.80;1510.40;;;;;;5068876;28;19911;-61
2022/07/03 10:37:15;;;;;;;;;;;870.70;1510.40;;;;;;5069256;28;19999;-61
2022/07/03 10:39:49;;;;;;;;;;;870.90;1510.40;;;;;;5069082;28;20002;-62
2022/07/03 10:45:12;;;;;;;;;;;871.20;1484.80;;;;;;5068968;28;19965;-59
2022/07/03 10:47:44;;;;;;;;;;;871.30;1484.80;;;;;;5069392;28;19908;-61
2022/07/03 10:50:16;;;;;;;;;;;871.10;1510.40;;;;;;5069260;28;19904;-62
2022/07/03 10:52:42;;;;;;;;;;;870.80;1484.80;;;;;;5068969;28;19911;-63
2022/07/03 10:55:08;;;;;;;;;;;870.50;1510.40;;;;;;5069048;28;20368;-61
2022/07/03 10:57:34;;;;;;;;;;;870.50;1536.00;;;;;;5068445;28;19908;-62
2022/07/03 11:00:00;;;;;;;;;;;845.70;1561.60;;;;;;5068600;28;19921;-60
2022/07/03 11:02:38;;;;;;;;;;;870.50;1536.00;;;;;;5068874;28;19911;-62
2022/07/03 11:05:04;;;;;;;;;;;870.40;1536.00;;;;;;5068803;28;19916;-62
2022/07/03 11:07:31;;;;;;;;;;;845.60;1561.60;;;;;;5068872;28;19904;-62
2022/07/03 11:10:12;;;;;;;;;;;845.60;1561.60;;;;;;5068277;28;19944;-63
2022/07/03 11:12:56;;;;;;;;;;;845.60;1587.20;;;;;;5069051;28;19908;-60
2022/07/03 11:15:25;;;;;;;;;;;845.60;1561.60;;;;;;5068653;28;19912;-62
2022/07/03 11:18:20;;;;;;;;;;;845.70;1561.60;;;;;;5068383;28;19947;-61
2022/07/03 11:20:48;;;;;;;;;;;870.40;1561.60;;;;;;4980833;28;19932;-59
2022/07/03 11:23:19;;;;;;;;;;;870.70;1536.00;;;;;;4986411;28;19913;-62
2022/07/03 11:25:49;;;;;;;;;;;870.50;1561.60;;;;;;4986710;28;20083;-60
2022/07/03 11:28:32;;;;;;;;;;;870.50;1561.60;;;;;;4986660;28;19960;-61
2022/07/03 11:33:45;;;;;;;;;;;870.50;1561.60;;;;;;4987028;28;20347;-61
2022/07/03 11:36:16;;;;;;;;;;;845.70;1587.20;;;;;;4986389;28;19909;-62
2022/07/03 11:38:42;;;;;;;;;;;870.50;1587.20;;;;;;4986535;28;20396;-61
2022/07/03 11:41:09;;;;;;;;;;;870.40;1587.20;;;;;;4986786;28;19912;-61
2022/07/03 11:43:34;;;;;;;;;;;870.50;1587.20;;;;;;4986498;28;19918;-62
2022/07/03 11:46:00;;;;;;;;;;;870.40;1587.20;;;;;;4986672;28;20433;-62
2022/07/03 11:48:26;;;;;;;;;;;845.70;1561.60;;;;;;4986320;28;19909;-63
2022/07/03 11:50:57;;;;;;;;;;;870.50;1561.60;;;;;;4986402;28;20075;-60
2022/07/03 11:53:23;;;;;;;;;;;870.70;1561.60;;;;;;4986456;28;19942;-61
2022/07/03 11:55:50;;;;;;;;;;;870.80;1561.60;;;;;;4986381;28;19913;-60
2022/07/03 11:58:16;;;;;;;;;;;871.10;1561.60;;;;;;5045483;28;19913;-60
2022/07/03 12:00:41;;;;;;;;;;;871.10;1536.00;;;;;;5047926;28;20019;-59
2022/07/03 12:03:07;;;;;;;;;;;871.10;1536.00;;;;;;5047840;28;19936;-60
2022/07/03 12:05:33;;;;;;;;;;;871.10;1536.00;;;;;;5048221;28;19909;-59
2022/07/03 12:08:04;;;;;;;;;;;870.70;1536.00;;;;;;5048007;28;19911;-60
2022/07/03 12:10:37;;;;;;;;;;;870.50;1561.60;;;;;;5048343;28;19995;-60
2022/07/03 12:13:03;;;;;;;;;;;845.70;1561.60;;;;;;5048436;28;19909;-58
2022/07/03 12:15:28;;;;;;;;;;;845.50;1587.20;;;;;;5047825;28;20347;-61
2022/07/03 12:17:54;;;;;;;;;;;870.50;1561.60;;;;;;5048234;28;20281;-59
2022/07/03 12:20:19;;;;;;;;;;;845.60;1587.20;;;;;;5048485;28;19904;-61
2022/07/03 12:22:45;;;;;;;;;;;845.60;1561.60;;;;;;5048236;28;20539;-60
2022/07/03 12:25:12;;;;;;;;;;;845.60;1561.60;;;;;;5047725;28;19913;-61
2022/07/03 12:27:38;;;;;;;;;;;845.70;1561.60;;;;;;5047778;28;20380;-60
2022/07/03 12:30:05;;;;;;;;;;;845.60;1587.20;;;;;;5047960;28;19919;-59
2022/07/03 12:32:31;;;;;;;;;;;845.70;1561.60;;;;;;5047759;28;19962;-59
2022/07/03 12:34:56;;;;;;;;;;;845.70;1587.20;;;;;;5056492;28;19998;-62
2022/07/03 12:37:51;;;;;;;;;;;845.70;1561.60;;;;;;5066998;28;19904;-62
2022/07/03 12:40:18;;;;;;;;;;;870.50;1587.20;;;;;;4974261;28;19906;-60
2022/07/03 12:42:45;;;;;;;;;;;845.70;1587.20;;;;;;4975587;28;19913;-59
2022/07/03 12:45:11;;;;;;;;;;;870.50;1587.20;;;;;;4976102;28;19926;-60
2022/07/03 12:47:37;;;;;;;;;;;870.50;1587.20;;;;;;4983746;28;19906;-62
2022/07/03 12:50:04;;;;;;;;;;;870.70;1561.60;;;;;;4984581;28;19916;-61
2022/07/03 12:52:31;;;;;;;;;;;870.50;1561.60;;;;;;4976057;28;20431;-61
2022/07/03 12:54:57;;;;;;;;;;;845.70;1561.60;;;;;;4966727;28;20375;-62
2022/07/03 13:00:10;;;;;;;;;;;870.60;1638.40;;;;;;4972541;28;19964;-62
2022/07/03 13:02:39;;;;;;;;;;;870.50;1587.20;;;;;;4970440;28;19909;-61
2022/07/03 13:05:18;;;;;;;;;;;870.50;1587.20;;;;;;4970339;28;19925;-61
2022/07/03 13:07:45;;;;;;;;;;;870.50;1587.20;;;;;;4970124;28;19906;-60
2022/07/03 13:10:11;;;;;;;;;;;870.60;1587.20;;;;;;4970120;28;19906;-61
2022/07/03 13:12:51;;;;;;;;;;;870.70;1561.60;;;;;;4974534;28;20295;-62
2022/07/03 13:15:19;;;;;;;;;;;870.60;1587.20;;;;;;4982407;28;19909;-60
2022/07/03 13:18:10;;;;;;;;;;;870.70;1587.20;;;;;;5048821;28;19940;-60
2022/07/03 13:20:36;;;;;;;;;;;870.50;1587.20;;;;;;5050778;28;19905;-58
2022/07/03 13:23:03;;;;;;;;;;;870.50;1587.20;;;;;;5052777;28;20000;-61
2022/07/03 13:25:30;;;;;;;;;;;870.70;1561.60;;;;;;5035217;28;20334;-59
2022/07/03 13:28:09;;;;;;;;;;;870.50;1561.60;;;;;;5052595;28;19962;-60
2022/07/03 13:30:34;;;;;;;;;;;870.50;1561.60;;;;;;5052742;28;19913;-61
2022/07/03 13:33:01;;;;;;;;;;;870.60;1561.60;;;;;;5052752;28;19905;-60
2022/07/03 13:35:26;;;;;;;;;;;870.50;1561.60;;;;;;5052582;28;19904;-61
2022/07/03 13:37:52;;;;;;;;;;;870.50;1561.60;;;;;;5052382;28;20266;-59
2022/07/03 13:40:19;;;;;;;;;;;870.50;1561.60;;;;;;5052280;28;19912;-61
2022/07/03 13:42:44;;;;;;;;;;;845.70;1561.60;;;;;;5049881;28;19909;-62
2022/07/03 13:45:10;;;;;;;;;;;845.70;1561.60;;;;;;5050731;28;19919;-62
2022/07/03 13:47:36;;;;;;;;;;;870.50;1561.60;;;;;;5050577;28;19998;-58
2022/07/03 13:50:01;;;;;;;;;;;870.50;1587.20;;;;;;5050691;28;19928;-61
2022/07/03 13:52:27;;;;;;;;;;;845.70;1587.20;;;;;;5050654;28;19916;-60
2022/07/03 13:54:52;;;;;;;;;;;845.70;1561.60;;;;;;5049939;28;20351;-60
2022/07/03 13:57:18;;;;;;;;;;;870.60;1561.60;;;;;;5050697;28;20007;-61
2022/07/03 13:59:44;;;;;;;;;;;870.70;1561.60;;;;;;5050376;28;20433;-61